Time;durP1;ratioP1;P1;durP2;ratioP2;P2;SDS_P1;SDS_P2;PMS_P1;PMS_P2;Temp;Humidity;BMP_temperature;BMP_pressure;BME280_temperature;BME280_humidity;BME280_pressure;Samples;Min_cycle;Max_cycle;Signal;HPM_P1;HPM_P2
2023/06/10 14:41:02;;;;;;;7.43;3.03;;;28.10;99.90;;;;;;5049017;28;78761;-60
2023/06/10 14:43:27;;;;;;;7.95;2.75;;;27.40;99.90;;;;;;5031077;28;67087;-58
2023/06/10 14:45:53;;;;;;;4.57;2.72;;;27.40;99.90;;;;;;5048429;28;20071;-59
2023/06/10 14:48:18;;;;;;;10.27;5.13;;;27.50;99.90;;;;;;5047794;28;20032;-59
2023/06/10 15:05:19;;;;;;;7.30;3.42;;;;;;;;;;5023559;27;68123;-64
2023/06/10 15:07:45;;;;;;;7.82;3.47;;;;;;;;;;5029976;28;20072;-61
2023/06/10 15:10:10;;;;;;;5.72;2.85;;;;;;;;;;5030206;28;20026;-61
2023/06/10 15:12:36;;;;;;;6.10;2.63;;;;;;;;;;5024501;28;74814;-61
2023/06/10 15:45:02;;;;;;;9.20;2.83;;;;;;;;;;5076118;27;74893;-71
2023/06/10 15:47:28;;;;;;;4.47;2.45;;;;;;;;;;5028462;28;20131;-72
2023/06/10 15:49:53;;;;;;;5.25;2.58;;;;;;;;;;5049610;28;20045;-73
2023/06/10 16:00:42;;;;;;;5.43;2.40;;;;;;;;;;5111665;27;20336;-67
2023/06/10 16:03:07;;;;;;;6.50;2.75;;;;;;;;;;5109994;28;20097;-70
2023/06/10 16:05:32;;;;;;;7.28;2.78;;;;;;;;;;5094750;27;20067;-70
2023/06/10 16:07:58;;;;;;;4.78;2.75;;;;;;;;;;5070296;28;20075;-70
2023/06/10 16:10:24;;;;;;;4.82;3.00;;;;;;;;;;5085650;28;20035;-70
2023/06/10 16:12:50;;;;;;;8.32;3.33;;;;;;;;;;5069093;28;20024;-70
2023/06/10 16:15:15;;;;;;;6.43;2.80;;;;;;;;;;5085740;28;20059;-70
2023/06/10 16:17:40;;;;;;;7.40;2.95;;;;;;;;;;5069552;28;20029;-70
2023/06/10 16:20:06;;;;;;;6.93;3.42;;;;;;;;;;5084949;28;20024;-70
2023/06/10 16:22:32;;;;;;;8.50;5.45;;;;;;;;;;5069985;28;20082;-70
2023/06/10 16:24:57;;;;;;;7.60;4.22;;;;;;;;;;5085525;28;20021;-70
2023/06/10 16:27:24;;;;;;;8.77;3.67;;;;;;;;;;5069973;28;20030;-70
2023/06/10 16:29:49;;;;;;;5.30;3.00;;;;;;;;;;5085823;28;20048;-70
2023/06/10 16:32:15;;;;;;;6.80;3.42;;;;;;;;;;5069857;28;20028;-70
2023/06/10 16:34:40;;;;;;;5.28;2.83;;;;;;;;;;5069722;28;20031;-70
2023/06/10 16:37:05;;;;;;;8.73;2.95;;;;;;;;;;5085745;28;20052;-70
2023/06/10 16:39:31;;;;;;;9.15;3.63;;;;;;;;;;5068399;28;20032;-70
2023/06/10 16:41:56;;;;;;;9.13;3.00;;;;;;;;;;5069628;28;20537;-70
2023/06/10 16:44:21;;;;;;;8.98;3.08;;;;;;;;;;5069508;28;20032;-70
2023/06/10 16:46:46;;;;;;;5.28;3.08;;;;;;;;;;5085244;28;20020;-70
2023/06/10 16:49:12;;;;;;;8.80;3.65;;;;;;;;;;5069815;28;20058;-70
2023/06/10 16:51:37;;;;;;;7.60;3.83;;;;;;;;;;5085083;28;20397;-70
2023/06/10 16:54:02;;;;;;;9.80;3.60;;;;;;;;;;5069645;28;20414;-70
2023/06/10 16:56:28;;;;;;;12.77;3.95;;;;;;;;;;5069523;28;20060;-70
2023/06/10 16:58:53;;;;;;;9.98;3.20;;;;;;;;;;5084803;28;20028;-70
2023/06/10 17:01:18;;;;;;;9.65;3.97;;;;;;;;;;5067908;28;20029;-70
2023/06/10 17:03:45;;;;;;;8.85;3.78;;;;;;;;;;5069204;28;20033;-70
2023/06/10 17:06:10;;;;;;;7.57;2.78;;;;;;;;;;5069120;28;20028;-70
2023/06/10 17:08:35;;;;;;;9.02;2.85;;;;;;;;;;5084844;28;20020;-70
2023/06/10 17:11:01;;;;;;;4.90;2.50;;;;;;;;;;5077169;28;20483;-70
2023/06/10 17:13:26;;;;;;;5.68;2.80;;;;;;;;;;5054603;28;20075;-69
2023/06/10 17:15:52;;;;;;;7.10;2.33;;;;;;;;;;5055754;28;20036;-71
2023/06/10 17:18:17;;;;;;;8.32;2.38;;;;;;;;;;5071052;28;20037;-71
2023/06/10 17:20:42;;;;;;;6.70;2.42;;;;;;;;;;5054510;28;20075;-70
2023/06/10 17:23:07;;;;;;;5.47;2.42;;;;;;;;;;5055556;28;20021;-70
2023/06/10 17:25:35;;;;;;;9.25;2.78;;;;;;;;;;5054318;28;20032;-71
2023/06/10 17:28:00;;;;;;;7.72;2.60;;;;;;;;;;5070927;28;20109;-71
2023/06/10 17:30:25;;;;;;;6.30;2.72;;;;;;;;;;5055799;28;20375;-70
2023/06/10 17:32:50;;;;;;;8.52;2.95;;;;;;;;;;5055477;28;20090;-71
2023/06/10 17:35:16;;;;;;;7.25;2.33;;;;;;;;;;5054123;28;20032;-70
2023/06/10 17:37:41;;;;;;;6.55;2.22;;;;;;;;;;5054149;28;20025;-71
2023/06/10 17:40:07;;;;;;;7.07;2.17;;;;;;;;;;5055497;28;20068;-71
2023/06/10 17:42:32;;;;;;;5.88;2.50;;;;;;;;;;5055172;28;20021;-72
2023/06/10 17:44:57;;;;;;;5.28;2.15;;;;;;;;;;5055077;28;20086;-71
2023/06/10 17:47:23;;;;;;;7.50;2.33;;;;;;;;;;5055110;28;20021;-70
2023/06/10 17:49:48;;;;;;;7.05;2.50;;;;;;;;;;5055150;28;20048;-70
2023/06/10 17:52:13;;;;;;;7.32;2.10;;;;;;;;;;5070820;28;20037;-71
2023/06/10 17:54:38;;;;;;;4.30;2.10;;;;;;;;;;5054977;28;20024;-71
2023/06/10 17:57:05;;;;;;;6.20;2.17;;;;;;;;;;5054990;28;20032;-70
2023/06/10 17:59:30;;;;;;;5.03;2.28;;;;;;;;;;5054689;28;20029;-71
2023/06/10 18:01:56;;;;;;;5.82;2.40;;;;;;;;;;5055150;28;20474;-71
2023/06/10 18:04:21;;;;;;;5.25;2.15;;;;;;;;;;5070210;28;20036;-71
2023/06/10 18:06:46;;;;;;;5.47;2.15;;;;;;;;;;5055346;28;20051;-71
2023/06/10 18:09:14;;;;;;;6.28;1.98;;;;;;;;;;5053522;28;20060;-71
2023/06/10 18:11:39;;;;;;;4.95;2.97;;;;;;;;;;5053465;28;20445;-71
2023/06/10 18:14:04;;;;;;;5.90;2.10;;;;;;;;;;5054558;28;20017;-71
2023/06/10 18:16:30;;;;;;;6.20;2.00;;;;;;;;;;5054624;28;20021;-71
2023/06/10 18:18:55;;;;;;;5.07;2.10;;;;;;;;;;5069985;28;20032;-71
2023/06/10 18:21:20;;;;;;;4.80;2.40;;;;;;;;;;5055101;28;20025;-71
2023/06/10 18:23:45;;;;;;;4.53;1.85;;;;;;;;;;5053401;28;20017;-71
2023/06/10 18:26:11;;;;;;;5.82;2.05;;;;;;;;;;5053179;28;20067;-70
2023/06/10 18:28:36;;;;;;;4.93;1.92;;;;;;;;;;5054381;28;20501;-71
2023/06/10 18:31:01;;;;;;;5.78;1.70;;;;;;;;;;5064395;28;20034;-71
2023/06/10 18:33:27;;;;;;;4.47;1.70;;;;;;;;;;5049274;28;20025;-69
2023/06/10 18:35:53;;;;;;;4.95;2.53;;;;;;;;;;5053645;28;20025;-69
2023/06/10 18:38:18;;;;;;;4.03;2.13;;;;;;;;;;5053584;28;20028;-69
2023/06/10 18:40:43;;;;;;;3.22;2.15;;;;;;;;;;5053870;28;20156;-69
2023/06/10 18:43:09;;;;;;;7.97;2.50;;;;;;;;;;5046379;28;20028;-68
2023/06/10 18:45:34;;;;;;;5.43;1.90;;;;;;;;;;5038642;28;20036;-68
2023/06/10 18:48:00;;;;;;;5.82;2.03;;;;;;;;;;5052680;28;20046;-68
2023/06/10 18:50:25;;;;;;;8.38;2.05;;;;;;;;;;5053515;28;20025;-69
2023/06/10 18:52:50;;;;;;;3.83;1.70;;;;;;;;;;5054344;28;20056;-68
2023/06/10 18:55:15;;;;;;;8.73;2.15;;;;;;;;;;5053790;28;20021;-68
2023/06/10 18:57:41;;;;;;;6.03;1.80;;;;;;;;;;5053553;28;20029;-68
2023/06/10 19:00:06;;;;;;;4.75;2.00;;;;;;;;;;5053235;28;20126;-68
2023/06/10 19:02:33;;;;;;;4.50;1.83;;;;;;;;;;5054004;28;20029;-68
2023/06/10 19:04:59;;;;;;;6.78;1.88;;;;;;;;;;5053412;28;20479;-68
2023/06/10 19:07:24;;;;;;;7.13;1.95;;;;;;;;;;5053516;28;20040;-68
2023/06/10 19:09:49;;;;;;;3.65;1.77;;;;;;;;;;5053624;28;20071;-68
2023/06/10 19:12:15;;;;;;;3.55;1.65;;;;;;;;;;5053560;28;20457;-68
2023/06/10 19:14:41;;;;;;;10.68;1.80;;;;;;;;;;5053679;28;20026;-68
2023/06/10 19:17:06;;;;;;;3.15;1.75;;;;;;;;;;5047422;28;20029;-68
2023/06/10 19:19:31;;;;;;;3.90;2.00;;;;;;;;;;5033357;28;20487;-68
2023/06/10 19:21:57;;;;;;;4.53;2.08;;;;;;;;;;5033367;28;20030;-68
2023/06/10 19:24:22;;;;;;;4.00;1.67;;;;;;;;;;5033768;28;20033;-68
2023/06/10 19:26:47;;;;;;;6.68;2.13;;;;;;;;;;5032321;28;20021;-68
2023/06/10 19:29:12;;;;;;;3.85;2.13;;;;;;;;;;5040932;28;20025;-68
2023/06/10 19:31:38;;;;;;;7.25;1.85;;;;;;;;;;5053423;28;20029;-68
2023/06/10 19:34:03;;;;;;;2.28;1.33;;;;;;;;;;5052888;28;20119;-68
2023/06/10 19:36:28;;;;;;;6.38;2.30;;;;;;;;;;5051838;28;20071;-68
2023/06/10 19:38:53;;;;;;;4.97;2.10;;;;;;;;;;5032748;28;20029;-68
2023/06/10 19:41:20;;;;;;;3.72;2.30;;;;;;;;;;5051688;28;20033;-68
2023/06/10 19:43:45;;;;;;;3.85;1.80;;;;;;;;;;5052213;28;20025;-68
2023/06/10 19:46:11;;;;;;;3.30;2.83;;;;;;;;;;5052961;28;20020;-68
2023/06/10 19:48:36;;;;;;;3.25;1.63;;;;;;;;;;5041521;28;20022;-68
2023/06/10 19:51:02;;;;;;;3.70;1.92;;;;;;;;;;5036957;28;20084;-68
2023/06/10 19:53:27;;;;;;;3.25;2.25;;;;;;;;;;5052649;28;20463;-69
2023/06/10 19:55:52;;;;;;;4.50;2.10;;;;;;;;;;5052745;28;20021;-68
2023/06/10 19:58:17;;;;;;;6.03;2.05;;;;;;;;;;5052053;28;20078;-68
2023/06/10 20:00:43;;;;;;;3.65;1.67;;;;;;;;;;5052808;28;20505;-68
2023/06/10 20:03:08;;;;;;;5.53;1.77;;;;;;;;;;5052179;28;20064;-68
2023/06/10 20:05:33;;;;;;;6.20;1.80;;;;;;;;;;5052608;28;20032;-68
2023/06/10 20:07:59;;;;;;;3.83;1.83;;;;;;;;;;5051518;28;20390;-68
2023/06/10 20:10:24;;;;;;;3.78;2.25;;;;;;;;;;5052773;28;20017;-68
2023/06/10 20:12:49;;;;;;;2.30;1.35;;;;;;;;;;5051735;28;20040;-68
2023/06/10 20:15:15;;;;;;;4.25;2.03;;;;;;;;;;5052450;28;20028;-69
2023/06/10 20:17:40;;;;;;;4.72;2.20;;;;;;;;;;5052642;28;20028;-69
2023/06/10 20:20:06;;;;;;;5.10;2.60;;;;;;;;;;5045699;28;20496;-69
2023/06/10 20:22:31;;;;;;;4.03;1.40;;;;;;;;;;5049426;28;20124;-70
2023/06/10 20:24:57;;;;;;;4.43;2.33;;;;;;;;;;5046878;28;20029;-69
2023/06/10 20:27:22;;;;;;;5.38;2.05;;;;;;;;;;5049353;28;20524;-69
2023/06/10 20:29:47;;;;;;;4.00;2.60;;;;;;;;;;5040287;28;20017;-68
2023/06/10 20:32:13;;;;;;;4.32;1.50;;;;;;;;;;5049387;28;20398;-68
2023/06/10 20:34:40;;;;;;;7.72;1.73;;;;;;;;;;5042118;28;20064;-68
2023/06/10 20:37:06;;;;;;;5.22;1.63;;;;;;;;;;5040836;28;20033;-69
2023/06/10 20:39:31;;;;;;;2.90;1.40;;;;;;;;;;5045029;28;20034;-67
2023/06/10 20:41:56;;;;;;;6.72;2.15;;;;;;;;;;5047984;28;20040;-67
2023/06/10 20:44:22;;;;;;;4.68;1.73;;;;;;;;;;5045585;28;20029;-68
2023/06/10 20:46:47;;;;;;;4.55;2.88;;;;;;;;;;5053555;28;20501;-68
2023/06/10 20:49:13;;;;;;;4.63;2.17;;;;;;;;;;5053619;28;20029;-67
2023/06/10 20:51:38;;;;;;;5.80;2.92;;;;;;;;;;5043499;28;20037;-67
2023/06/10 20:54:03;;;;;;;5.80;2.70;;;;;;;;;;5046101;28;20083;-67
2023/06/10 20:56:29;;;;;;;3.40;2.30;;;;;;;;;;5045403;28;20406;-68
2023/06/10 20:58:54;;;;;;;2.80;1.65;;;;;;;;;;5053389;28;20032;-67
2023/06/10 21:01:20;;;;;;;5.10;1.77;;;;;;;;;;5054520;28;20094;-68
2023/06/10 21:03:45;;;;;;;3.35;1.90;;;;;;;;;;5050186;28;20100;-68
2023/06/10 21:06:10;;;;;;;4.15;2.20;;;;;;;;;;5055703;28;20024;-68
2023/06/10 21:08:36;;;;;;;3.55;2.10;;;;;;;;;;5054391;28;20021;-68
2023/06/10 21:11:01;;;;;;;5.78;2.60;;;;;;;;;;5055271;28;20505;-68
2023/06/10 21:13:26;;;;;;;4.22;2.08;;;;;;;;;;5055517;28;20083;-68
2023/06/10 21:15:52;;;;;;;3.50;1.77;;;;;;;;;;5055243;28;20031;-68
2023/06/10 21:18:17;;;;;;;3.35;1.83;;;;;;;;;;5055336;28;20048;-68
2023/06/10 21:20:42;;;;;;;3.60;1.60;;;;;;;;;;5054149;28;20052;-68
2023/06/10 21:23:08;;;;;;;4.22;1.73;;;;;;;;;;5055410;28;20114;-68
2023/06/10 21:25:33;;;;;;;5.65;3.25;;;;;;;;;;5054054;28;20116;-68
2023/06/10 21:27:58;;;;;;;4.20;2.65;;;;;;;;;;5055076;28;20017;-68
2023/06/10 21:30:25;;;;;;;6.13;1.73;;;;;;;;;;5054799;28;20017;-68
2023/06/10 21:32:50;;;;;;;3.08;2.10;;;;;;;;;;5055372;28;20021;-68
2023/06/10 21:35:15;;;;;;;2.45;1.65;;;;;;;;;;5053968;28;20028;-67
2023/06/10 21:37:41;;;;;;;7.32;2.47;;;;;;;;;;5055059;28;20450;-68
2023/06/10 21:40:07;;;;;;;6.28;2.30;;;;;;;;;;5053998;28;20032;-68
2023/06/10 21:42:32;;;;;;;4.80;2.72;;;;;;;;;;5055103;28;20074;-68
2023/06/10 21:44:57;;;;;;;4.32;1.70;;;;;;;;;;5053864;28;20021;-68
2023/06/10 21:47:22;;;;;;;5.38;2.20;;;;;;;;;;5054901;28;20418;-68
2023/06/10 21:49:48;;;;;;;5.05;2.45;;;;;;;;;;5053870;28;20490;-68
2023/06/10 21:52:13;;;;;;;6.10;2.13;;;;;;;;;;5055266;28;20033;-68
2023/06/10 21:54:38;;;;;;;2.50;1.50;;;;;;;;;;5054889;28;20060;-68
2023/06/10 21:57:05;;;;;;;8.68;2.13;;;;;;;;;;5053631;28;20060;-68
2023/06/10 21:59:31;;;;;;;4.22;2.38;;;;;;;;;;5053444;28;20128;-68
2023/06/10 22:01:57;;;;;;;5.18;1.70;;;;;;;;;;5053666;28;20024;-68
2023/06/10 22:04:23;;;;;;;3.83;2.47;;;;;;;;;;5054574;28;20478;-68
2023/06/10 22:06:48;;;;;;;4.47;2.80;;;;;;;;;;5054811;28;20486;-68
2023/06/10 22:09:13;;;;;;;6.15;2.50;;;;;;;;;;5054899;28;20025;-68
2023/06/10 22:11:39;;;;;;;5.82;2.05;;;;;;;;;;5054736;28;20024;-68
2023/06/10 22:14:04;;;;;;;2.95;1.80;;;;;;;;;;5053468;28;20027;-68
2023/06/10 22:16:29;;;;;;;3.80;2.17;;;;;;;;;;5054581;28;20063;-68
2023/06/10 22:18:55;;;;;;;6.95;2.50;;;;;;;;;;5053327;28;20062;-68
2023/06/10 22:21:20;;;;;;;2.70;1.60;;;;;;;;;;5054832;28;20020;-68
2023/06/10 22:23:45;;;;;;;3.00;1.80;;;;;;;;;;5054438;28;20454;-68
2023/06/10 22:26:11;;;;;;;5.22;2.72;;;;;;;;;;5054691;28;20031;-68
2023/06/10 22:28:36;;;;;;;5.78;2.08;;;;;;;;;;5052994;28;20103;-68
2023/06/10 22:31:01;;;;;;;3.80;2.63;;;;;;;;;;5054704;28;20033;-68
2023/06/10 22:33:27;;;;;;;9.50;2.00;;;;;;;;;;5054320;28;20024;-68
2023/06/10 22:35:52;;;;;;;5.32;2.10;;;;;;;;;;5054136;28;20017;-68
2023/06/10 22:38:17;;;;;;;3.80;1.80;;;;;;;;;;5052919;28;20032;-68
2023/06/10 22:40:42;;;;;;;5.03;2.63;;;;;;;;;;5054269;28;20068;-68
2023/06/10 22:43:08;;;;;;;3.63;2.42;;;;;;;;;;5045415;28;20049;-68
2023/06/10 22:45:33;;;;;;;5.20;2.22;;;;;;;;;;5041349;28;20388;-67
2023/06/10 22:47:58;;;;;;;4.82;2.40;;;;;;;;;;5050797;28;20025;-67
2023/06/10 22:50:24;;;;;;;5.18;2.25;;;;;;;;;;5047092;28;20111;-68
2023/06/10 22:52:50;;;;;;;5.25;2.78;;;;;;;;;;5069152;28;20486;-68
2023/06/10 22:55:16;;;;;;;6.40;2.03;;;;;;;;;;5053899;28;20052;-68
2023/06/10 22:57:41;;;;;;;5.38;2.78;;;;;;;;;;5053582;28;20056;-68
2023/06/10 23:00:07;;;;;;;4.63;2.47;;;;;;;;;;5053374;28;20112;-68
2023/06/10 23:02:32;;;;;;;5.03;2.38;;;;;;;;;;5053911;28;20052;-68
2023/06/10 23:04:58;;;;;;;4.90;2.45;;;;;;;;;;5053336;28;20027;-68
2023/06/10 23:07:23;;;;;;;4.15;2.47;;;;;;;;;;5053447;28;20025;-68
2023/06/10 23:09:49;;;;;;;5.50;1.95;;;;;;;;;;5052658;28;20032;-67
2023/06/10 23:12:15;;;;;;;6.32;2.50;;;;;;;;;;5053520;28;20056;-68
2023/06/10 23:14:40;;;;;;;5.60;1.80;;;;;;;;;;5053161;28;20475;-68
2023/06/10 23:17:06;;;;;;;5.85;3.25;;;;;;;;;;5053728;28;20114;-68
2023/06/10 23:19:31;;;;;;;5.65;3.10;;;;;;;;;;5053114;28;20029;-68
2023/06/10 23:21:56;;;;;;;4.00;2.03;;;;;;;;;;5053034;28;20028;-68
2023/06/10 23:24:29;;;;;;;3.22;2.58;;;;;;;;;;5053351;28;20539;-68
2023/06/10 23:26:55;;;;;;;3.25;1.83;;;;;;;;;;5051885;28;20111;-68
2023/06/10 23:29:21;;;;;;;3.03;2.17;;;;;;;;;;5053034;28;20021;-68
2023/06/10 23:31:47;;;;;;;7.95;1.90;;;;;;;;;;5051862;28;20025;-68
2023/06/10 23:34:12;;;;;;;6.93;2.28;;;;;;;;;;5052924;28;20493;-68
2023/06/10 23:36:40;;;;;;;6.70;2.83;;;;;;;;;;5051714;28;20025;-67
2023/06/10 23:39:08;;;;;;;4.47;1.85;;;;;;;;;;5052768;28;20104;-68
2023/06/10 23:41:34;;;;;;;3.15;1.85;;;;;;;;;;5052936;28;20530;-68
2023/06/10 23:44:00;;;;;;;5.05;2.00;;;;;;;;;;5052699;28;21696;-68
2023/06/10 23:46:25;;;;;;;6.38;2.58;;;;;;;;;;5052814;28;20101;-68
2023/06/10 23:48:51;;;;;;;4.20;1.73;;;;;;;;;;5052906;28;20033;-68
2023/06/10 23:51:16;;;;;;;7.28;2.92;;;;;;;;;;5052639;28;20060;-68
2023/06/10 23:53:42;;;;;;;4.20;2.00;;;;;;;;;;5052582;28;20482;-68
2023/06/10 23:56:07;;;;;;;5.82;1.95;;;;;;;;;;5052513;28;20021;-68
2023/06/10 23:58:33;;;;;;;6.65;2.22;;;;;;;;;;5052810;28;20079;-68
